Time;durP1;ratioP1;P1;durP2;ratioP2;P2;SDS_P1;SDS_P2;PMS_P1;PMS_P2;Temp;Humidity;BMP_temperature;BMP_pressure;BME280_temperature;BME280_humidity;BME280_pressure;Samples;Min_cycle;Max_cycle;Signal;HPM_P1;HPM_P2
2023/05/24 00:01:06;;;;;;;5.85;3.53;;;;;;;17.51;72.59;100958.19;5013129;28;20490;-84
2023/05/24 00:03:33;;;;;;;7.32;3.40;;;;;;;17.53;72.13;100974.59;4997029;28;20113;-85
2023/05/24 00:05:59;;;;;;;4.50;3.33;;;;;;;17.54;71.83;100968.41;4997217;28;20041;-85
2023/05/24 00:08:25;;;;;;;4.38;2.65;;;;;;;17.54;71.84;100968.41;4996343;28;20157;-84
2023/05/24 00:10:50;;;;;;;4.65;3.17;;;;;;;17.60;71.37;100970.56;4996506;28;20117;-85
2023/05/24 00:13:16;;;;;;;4.43;2.97;;;;;;;17.49;71.10;100947.81;5012959;28;20100;-85
2023/05/24 00:15:42;;;;;;;5.30;3.53;;;;;;;17.55;70.95;100967.47;5014074;28;20081;-84
2023/05/24 00:18:07;;;;;;;5.32;3.40;;;;;;;17.40;71.44;100972.88;5013012;28;20022;-85
2023/05/24 00:20:32;;;;;;;5.07;3.42;;;;;;;17.33;72.30;100970.81;5014036;28;20033;-84
2023/05/24 00:22:58;;;;;;;4.15;2.80;;;;;;;17.28;71.63;100965.88;4996001;28;20034;-84
2023/05/24 00:25:23;;;;;;;4.72;3.15;;;;;;;17.25;71.72;100971.34;5012611;28;20419;-84
2023/05/24 00:27:49;;;;;;;4.30;3.10;;;;;;;17.09;72.35;100965.53;4996242;28;20080;-84
2023/05/24 00:30:14;;;;;;;3.90;2.78;;;;;;;17.02;72.62;100967.75;5013768;28;20038;-85
2023/05/24 00:32:40;;;;;;;4.65;2.75;;;;;;;16.99;72.71;100967.09;4979843;28;20072;-84
2023/05/24 00:35:06;;;;;;;4.32;3.13;;;;;;;16.89;72.94;100952.06;5012805;28;20403;-85
2023/05/24 00:37:31;;;;;;;6.93;3.13;;;;;;;16.97;71.92;100954.16;5012951;28;20041;-84
2023/05/24 00:39:57;;;;;;;5.65;3.55;;;;;;;16.99;72.40;100969.72;4996062;28;20494;-84
2023/05/24 00:42:22;;;;;;;6.32;3.15;;;;;;;16.80;72.38;100947.50;4995968;28;20058;-85
2023/05/24 00:44:48;;;;;;;3.85;2.88;;;;;;;16.78;72.46;100954.59;5012360;28;20032;-84
2023/05/24 00:47:13;;;;;;;6.13;3.42;;;;;;;16.82;72.50;100965.69;4995932;28;20034;-84
2023/05/24 00:49:38;;;;;;;5.93;3.08;;;;;;;16.62;72.79;100933.09;4995716;28;20053;-85
2023/05/24 00:52:05;;;;;;;4.05;3.17;;;;;;;16.72;73.18;100964.66;4995635;28;20026;-85
2023/05/24 00:54:30;;;;;;;4.85;3.08;;;;;;;16.71;73.22;100963.81;4995719;28;20475;-84
2023/05/24 00:56:56;;;;;;;4.85;2.85;;;;;;;16.77;72.92;100963.38;4995502;28;20044;-85
2023/05/24 00:59:22;;;;;;;5.05;3.28;;;;;;;16.67;72.70;100957.09;4995731;28;20022;-84
2023/05/24 01:01:47;;;;;;;4.30;3.17;;;;;;;16.74;72.57;100954.94;4995663;28;20466;-84
2023/05/24 01:04:13;;;;;;;8.18;2.75;;;;;;;16.76;71.83;100960.88;5011956;28;20484;-84
2023/05/24 01:06:49;;;;;;;5.93;2.92;;;;;;;16.66;72.69;100958.03;4995250;28;20052;-84
2023/05/24 01:09:53;;;;;;;8.18;3.22;;;;;;;16.66;72.51;100960.66;5011864;28;20041;-84
2023/05/24 01:12:29;;;;;;;4.15;2.63;;;;;;;16.52;72.89;100947.72;5012746;28;20033;-85
2023/05/24 01:15:00;;;;;;;4.20;2.90;;;;;;;16.55;73.03;100968.41;4996373;28;20030;-85
2023/05/24 01:17:41;;;;;;;4.90;3.23;;;;;;;16.53;73.03;100963.28;5012922;28;20100;-84
2023/05/24 01:20:10;;;;;;;4.55;2.88;;;;;;;16.48;73.45;100967.13;4997081;28;20478;-84
2023/05/24 01:23:05;;;;;;;7.50;3.67;;;;;;;16.54;73.25;100970.19;4995158;28;20141;-84
2023/05/24 01:25:48;;;;;;;4.45;3.30;;;;;;;16.52;73.55;100971.22;5011661;28;20022;-85
2023/05/24 01:28:15;;;;;;;4.30;2.95;;;;;;;16.52;73.66;100960.78;5012675;28;20026;-86
2023/05/24 01:30:40;;;;;;;7.63;3.47;;;;;;;16.49;74.06;100960.97;4995002;28;20022;-84
2023/05/24 01:33:06;;;;;;;5.03;3.45;;;;;;;16.51;73.75;100959.91;4978775;28;20033;-85
2023/05/24 01:35:36;;;;;;;6.47;3.63;;;;;;;16.47;73.83;100955.84;4994332;28;20065;-84
2023/05/24 01:38:02;;;;;;;5.40;3.10;;;;;;;16.48;73.89;100959.31;5011350;28;20029;-85
2023/05/24 01:40:27;;;;;;;6.57;3.70;;;;;;;16.31;74.37;100934.31;5011290;28;20087;-85
2023/05/24 01:43:02;;;;;;;5.57;3.55;;;;;;;16.48;74.39;100949.69;4978762;28;20088;-84
2023/05/24 01:45:52;;;;;;;7.22;3.10;;;;;;;16.52;73.59;100952.94;4995363;28;20491;-84
2023/05/24 01:48:20;;;;;;;7.60;3.67;;;;;;;16.50;73.77;100946.97;4995397;28;20022;-84
2023/05/24 01:50:52;;;;;;;5.55;3.80;;;;;;;16.53;73.56;100960.66;5011954;28;20061;-85
2023/05/24 01:53:18;;;;;;;7.85;3.88;;;;;;;16.57;73.47;100961.28;4994774;28;20022;-84
2023/05/24 01:55:44;;;;;;;4.15;3.25;;;;;;;16.50;73.93;100963.47;5011219;28;20026;-84
2023/05/24 01:58:09;;;;;;;3.88;2.88;;;;;;;16.34;74.20;100955.88;4994361;28;20495;-84
2023/05/24 02:00:35;;;;;;;10.40;3.80;;;;;;;16.14;74.25;100916.38;5011196;28;20052;-84
2023/05/24 02:03:01;;;;;;;4.55;3.08;;;;;;;16.29;74.12;100957.09;4994606;28;20033;-84
2023/05/24 02:05:26;;;;;;;4.53;3.30;;;;;;;16.25;74.28;100953.88;4994348;28;20034;-84
2023/05/24 02:07:51;;;;;;;5.13;3.42;;;;;;;16.30;74.31;100964.81;4978273;28;20054;-84
2023/05/24 02:10:17;;;;;;;4.78;3.40;;;;;;;16.20;74.47;100955.94;4994369;28;20380;-84
2023/05/24 02:12:42;;;;;;;8.23;3.63;;;;;;;16.20;74.87;100955.94;4994308;28;20030;-84
2023/05/24 02:15:09;;;;;;;5.68;3.42;;;;;;;16.18;74.50;100951.78;4994079;28;20041;-84
2023/05/24 02:17:34;;;;;;;6.28;3.30;;;;;;;16.19;74.88;100956.03;5009649;28;20454;-84
2023/05/24 02:20:00;;;;;;;3.60;2.92;;;;;;;16.19;74.16;100958.66;4993993;28;20029;-84
2023/05/24 02:22:26;;;;;;;5.78;3.42;;;;;;;16.05;74.43;100967.41;4994287;28;20042;-84
2023/05/24 02:24:52;;;;;;;6.13;3.30;;;;;;;16.03;74.68;100956.25;4977981;28;20112;-84
2023/05/24 02:27:17;;;;;;;5.32;3.35;;;;;;;16.09;74.71;100955.00;4993973;28;20407;-84
2023/05/24 02:29:43;;;;;;;6.03;3.55;;;;;;;16.10;75.15;100960.09;4993842;28;20034;-86
2023/05/24 02:32:08;;;;;;;4.88;3.28;;;;;;;16.03;75.42;100961.47;4994013;28;20128;-85
2023/05/24 02:34:34;;;;;;;5.10;3.90;;;;;;;16.01;75.22;100943.28;4993816;28;20080;-84
2023/05/24 02:37:00;;;;;;;7.80;3.67;;;;;;;16.13;75.28;100972.97;4993951;28;20050;-83
2023/05/24 02:39:26;;;;;;;5.18;3.58;;;;;;;16.05;75.61;100972.63;4994035;28;20033;-84
2023/05/24 02:41:52;;;;;;;5.78;3.88;;;;;;;16.01;75.73;100945.88;5010166;28;20495;-84
2023/05/24 02:44:17;;;;;;;4.30;3.10;;;;;;;16.16;75.15;100971.91;5009928;28;20078;-84
2023/05/24 02:46:43;;;;;;;4.50;3.10;;;;;;;16.10;75.49;100977.53;4993891;28;20100;-84
2023/05/24 02:49:09;;;;;;;5.20;3.85;;;;;;;15.90;76.02;100956.19;4993584;28;20117;-85
2023/05/24 02:51:35;;;;;;;6.00;3.58;;;;;;;15.95;75.81;100968.97;5009913;28;20026;-83
2023/05/24 02:54:01;;;;;;;6.15;3.58;;;;;;;15.95;75.92;100976.78;5010915;28;20038;-84
2023/05/24 02:56:28;;;;;;;7.28;3.50;;;;;;;15.92;75.65;100976.97;4993755;28;20112;-84
2023/05/24 02:58:54;;;;;;;4.55;3.20;;;;;;;15.85;76.19;100973.13;5010079;28;20495;-83
2023/05/24 03:01:20;;;;;;;5.28;3.35;;;;;;;15.86;75.94;100966.97;5009953;28;20030;-84
2023/05/24 03:03:46;;;;;;;8.75;3.80;;;;;;;15.85;76.25;100967.91;5009398;28;20107;-84
2023/05/24 03:06:12;;;;;;;4.80;3.25;;;;;;;15.93;75.85;100984.72;4977369;28;20069;-84
2023/05/24 03:08:38;;;;;;;9.35;3.90;;;;;;;15.84;76.22;100976.66;4993723;28;20376;-84
2023/05/24 03:11:04;;;;;;;4.18;3.25;;;;;;;15.74;76.80;100969.44;5010137;28;20025;-84
2023/05/24 03:13:29;;;;;;;8.40;3.90;;;;;;;15.80;76.87;100985.59;5009739;28;20466;-84
2023/05/24 03:15:55;;;;;;;5.15;3.75;;;;;;;15.87;76.70;100985.13;4993491;28;20255;-84
2023/05/24 03:18:20;;;;;;;4.88;3.75;;;;;;;15.85;76.24;100975.72;4993218;28;20033;-84
2023/05/24 03:20:46;;;;;;;5.97;3.75;;;;;;;15.62;76.48;100941.50;5009444;28;20037;-84
2023/05/24 03:23:11;;;;;;;9.82;4.05;;;;;;;15.88;76.45;100988.56;5010748;28;21304;-84
2023/05/24 03:25:37;;;;;;;12.90;4.35;;;;;;;15.85;76.90;100980.94;4993105;28;20033;-84
2023/05/24 03:28:02;;;;;;;10.73;4.00;;;;;;;15.78;76.88;100983.94;4993864;28;20042;-84
2023/05/24 03:30:28;;;;;;;6.32;4.10;;;;;;;15.74;76.58;100966.81;4997320;28;20574;-84
2023/05/24 03:32:53;;;;;;;4.78;3.45;;;;;;;15.76;77.32;100980.59;5014657;28;20033;-84
2023/05/24 03:35:19;;;;;;;5.78;3.97;;;;;;;15.87;77.15;100982.50;4997156;28;20022;-84
2023/05/24 03:37:45;;;;;;;6.35;4.00;;;;;;;15.85;76.91;100979.16;4996953;28;20096;-83
2023/05/24 03:40:10;;;;;;;5.90;4.05;;;;;;;15.84;76.57;100971.44;4997533;28;20492;-84
2023/05/24 03:42:36;;;;;;;9.68;3.80;;;;;;;15.84;77.04;100976.66;4996897;28;20105;-83
2023/05/24 03:45:02;;;;;;;4.50;3.25;;;;;;;15.95;76.77;100982.84;5013090;28;20137;-86
2023/05/24 03:47:28;;;;;;;6.40;3.63;;;;;;;15.84;77.29;100976.66;5014024;28;20411;-84
2023/05/24 03:49:53;;;;;;;10.35;4.43;;;;;;;16.00;77.06;100988.59;5014567;28;20036;-84
2023/05/24 03:52:18;;;;;;;6.25;3.92;;;;;;;16.01;76.23;100987.63;5012936;28;20030;-84
2023/05/24 03:54:44;;;;;;;9.82;4.28;;;;;;;15.94;76.70;100983.78;5013213;28;20034;-85
2023/05/24 03:57:10;;;;;;;6.07;4.10;;;;;;;15.92;76.89;100985.63;5013309;28;20026;-84
2023/05/24 03:59:35;;;;;;;7.80;4.68;;;;;;;16.02;75.93;101004.97;5013219;28;20454;-84
2023/05/24 04:02:01;;;;;;;5.75;3.67;;;;;;;15.93;75.88;100989.09;5012670;28;20104;-84
2023/05/24 04:04:26;;;;;;;11.48;4.32;;;;;;;16.10;75.94;101014.91;4996801;28;20034;-84
2023/05/24 04:06:52;;;;;;;6.57;4.00;;;;;;;16.10;75.77;101016.69;5012959;28;20030;-84
2023/05/24 04:09:18;;;;;;;5.97;4.18;;;;;;;15.98;76.20;100995.69;5013013;28;20414;-84
2023/05/24 04:11:43;;;;;;;4.93;3.65;;;;;;;16.01;76.76;101026.78;5012980;28;20109;-84
2023/05/24 04:14:09;;;;;;;7.10;4.10;;;;;;;16.01;76.35;101023.34;5014032;28;20030;-84
2023/05/24 04:16:35;;;;;;;5.68;3.92;;;;;;;16.13;76.33;101035.63;5012596;28;20025;-84
2023/05/24 04:19:02;;;;;;;6.07;4.00;;;;;;;16.18;75.86;101030.91;4996136;28;20088;-84
2023/05/24 04:21:28;;;;;;;5.38;3.17;;;;;;;16.20;75.99;101033.41;5012858;28;20084;-83
2023/05/24 04:23:54;;;;;;;7.18;4.10;;;;;;;16.15;76.31;101023.28;5012464;28;20026;-83
2023/05/24 04:26:20;;;;;;;7.07;4.00;;;;;;;16.21;75.56;101028.09;4996333;28;20423;-84
2023/05/24 04:28:47;;;;;;;7.00;4.07;;;;;;;16.12;76.21;101014.81;5012357;28;20033;-84
2023/05/24 04:31:14;;;;;;;7.10;4.22;;;;;;;16.29;75.73;101035.41;4996082;28;20030;-84
2023/05/24 04:33:40;;;;;;;6.60;3.97;;;;;;;16.23;75.36;101026.25;4980304;28;20026;-83
2023/05/24 04:36:07;;;;;;;7.85;4.55;;;;;;;16.37;75.31;101040.13;4996051;28;20048;-84
2023/05/24 04:38:33;;;;;;;6.97;4.35;;;;;;;16.32;75.72;101036.06;4995986;28;20026;-86
2023/05/24 04:40:58;;;;;;;6.40;4.30;;;;;;;16.46;75.55;101034.31;5011594;28;20034;-84
2023/05/24 04:43:27;;;;;;;7.25;4.70;;;;;;;16.38;75.60;101031.38;4995794;28;20033;-84
2023/05/24 04:45:53;;;;;;;5.95;4.40;;;;;;;16.48;75.74;101040.25;5013102;28;20026;-83
2023/05/24 04:48:20;;;;;;;8.27;4.68;;;;;;;16.50;75.45;101040.97;5012358;28;20037;-83
2023/05/24 04:50:46;;;;;;;8.35;4.45;;;;;;;16.64;75.40;101046.13;5012279;28;20026;-84
2023/05/24 04:53:13;;;;;;;7.72;4.78;;;;;;;16.61;75.47;101030.66;5011846;28;20029;-84
2023/05/24 04:55:39;;;;;;;7.30;4.82;;;;;;;16.77;74.96;101041.78;5012943;28;20092;-85
2023/05/24 04:58:04;;;;;;;6.45;4.28;;;;;;;16.87;74.97;101037.59;4995884;28;20451;-85
2023/05/24 05:00:29;;;;;;;6.13;4.10;;;;;;;16.91;74.86;101028.63;4995492;28;20026;-84
2023/05/24 05:02:55;;;;;;;6.82;4.53;;;;;;;17.02;74.88;101046.16;5013262;28;20030;-84
2023/05/24 05:05:20;;;;;;;10.90;4.47;;;;;;;17.10;74.31;101041.22;4995385;28;20025;-84
2023/05/24 05:07:46;;;;;;;12.32;4.53;;;;;;;17.18;74.21;101046.75;5012145;28;20041;-84
2023/05/24 05:10:11;;;;;;;6.93;4.50;;;;;;;17.28;73.72;101052.16;4995421;28;20030;-84
2023/05/24 05:12:37;;;;;;;6.93;4.78;;;;;;;17.26;73.56;101037.53;5011512;28;20080;-85
2023/05/24 05:15:03;;;;;;;10.85;5.20;;;;;;;17.30;73.79;101042.44;4995550;28;20523;-85
2023/05/24 05:17:29;;;;;;;8.48;5.53;;;;;;;17.51;73.20;101054.97;5011696;28;20030;-84
2023/05/24 05:19:54;;;;;;;9.82;4.63;;;;;;;17.59;73.31;101057.84;5011350;28;20084;-85
2023/05/24 05:22:20;;;;;;;6.47;4.45;;;;;;;17.68;72.95;101049.34;5011609;28;20029;-85
2023/05/24 05:24:45;;;;;;;9.98;4.65;;;;;;;17.70;72.50;101042.28;5011604;28;20041;-84
2023/05/24 05:27:10;;;;;;;9.15;4.40;;;;;;;17.64;72.31;101032.19;5011035;28;20545;-84
2023/05/24 05:29:36;;;;;;;5.85;4.22;;;;;;;17.75;72.61;101056.69;5012373;28;20384;-84
2023/05/24 05:32:01;;;;;;;9.55;4.40;;;;;;;17.77;73.13;101053.94;4995092;28;20049;-84
2023/05/24 05:34:27;;;;;;;6.70;4.97;;;;;;;17.90;73.31;101053.91;4994950;28;20033;-84
2023/05/24 05:36:52;;;;;;;7.05;4.38;;;;;;;17.80;72.59;101055.50;5011025;28;20057;-84
2023/05/24 05:39:17;;;;;;;6.68;4.78;;;;;;;17.77;72.77;101052.16;5011032;28;20061;-84
2023/05/24 05:41:44;;;;;;;8.38;5.22;;;;;;;17.98;72.70;101068.09;5011294;28;20423;-84
2023/05/24 05:44:11;;;;;;;7.20;4.78;;;;;;;18.02;72.33;101077.41;5011208;28;20045;-85
2023/05/24 05:46:36;;;;;;;9.48;4.75;;;;;;;17.97;70.96;101058.56;5011427;28;20033;-85
2023/05/24 05:49:01;;;;;;;7.22;5.38;;;;;;;18.14;72.08;101066.97;4994690;28;20026;-84
2023/05/24 05:51:27;;;;;;;7.60;3.92;;;;;;;18.08;72.12;101056.94;5010341;28;20034;-84
2023/05/24 05:53:52;;;;;;;10.43;5.30;;;;;;;18.26;71.77;101063.44;4994369;28;20060;-84
2023/05/24 05:56:18;;;;;;;7.68;4.93;;;;;;;18.30;71.57;101052.66;4994456;28;20034;-84
2023/05/24 05:58:43;;;;;;;8.45;5.15;;;;;;;18.45;70.92;101062.91;4994253;28;20033;-84
2023/05/24 06:01:09;;;;;;;7.82;5.35;;;;;;;18.66;70.80;101070.97;5011180;28;20514;-84
2023/05/24 06:03:34;;;;;;;7.22;4.40;;;;;;;18.68;69.98;101074.31;5010843;28;20506;-84
2023/05/24 06:06:00;;;;;;;10.10;5.10;;;;;;;18.70;70.06;101072.44;5010503;28;20034;-84
2023/05/24 06:08:26;;;;;;;7.13;4.78;;;;;;;18.77;69.64;101071.81;5010826;28;20022;-85
2023/05/24 06:10:51;;;;;;;8.43;5.03;;;;;;;18.70;69.32;101070.63;4994110;28;20033;-84
2023/05/24 06:13:17;;;;;;;7.72;5.15;;;;;;;18.88;68.88;101068.41;4994129;28;20022;-84
2023/05/24 06:15:42;;;;;;;8.10;4.97;;;;;;;19.16;68.54;101088.91;4994048;28;20061;-84
2023/05/24 06:18:07;;;;;;;10.05;4.97;;;;;;;19.28;68.28;101075.81;5010583;28;20088;-84
2023/05/24 06:20:33;;;;;;;9.40;5.75;;;;;;;19.53;66.50;101086.03;4994210;28;20153;-85
2023/05/24 06:22:58;;;;;;;9.27;4.82;;;;;;;19.56;66.06;101064.81;4994135;28;20030;-84
2023/05/24 06:25:24;;;;;;;9.32;5.35;;;;;;;19.70;65.70;101072.44;5010009;28;20033;-85
2023/05/24 06:27:50;;;;;;;9.35;4.53;;;;;;;19.81;65.74;101070.72;4994209;28;20124;-85
2023/05/24 06:30:16;;;;;;;7.10;4.57;;;;;;;19.92;65.30;101078.56;4994262;28;20037;-85
2023/05/24 06:32:41;;;;;;;6.88;4.70;;;;;;;20.07;64.90;101079.13;4993610;28;20022;-85
2023/05/24 06:35:07;;;;;;;8.63;5.13;;;;;;;20.26;63.27;101079.28;4977730;28;20029;-84
2023/05/24 06:37:33;;;;;;;9.50;4.32;;;;;;;20.21;62.49;101070.94;4993794;28;20050;-85
2023/05/24 06:39:58;;;;;;;10.27;5.18;;;;;;;20.29;62.52;101079.03;4993537;28;20030;-85
2023/05/24 06:42:24;;;;;;;6.75;4.57;;;;;;;20.39;61.97;101071.22;4993670;28;20095;-85
2023/05/24 06:44:49;;;;;;;7.82;4.93;;;;;;;20.53;60.49;101076.19;4993827;28;20505;-86
2023/05/24 06:47:15;;;;;;;8.52;4.28;;;;;;;20.58;59.49;101071.38;5010128;28;20109;-85
2023/05/24 06:49:40;;;;;;;7.07;4.32;;;;;;;20.64;60.11;101070.84;5010977;28;20053;-85
2023/05/24 06:52:07;;;;;;;7.53;4.57;;;;;;;20.79;60.02;101082.72;5009886;28;20038;-85
2023/05/24 06:54:32;;;;;;;6.43;4.80;;;;;;;20.87;59.92;101090.78;5010932;28;20022;-86
2023/05/24 06:56:58;;;;;;;8.45;4.93;;;;;;;20.89;59.34;101094.13;5011392;28;20600;-85
2023/05/24 06:59:23;;;;;;;8.68;4.85;;;;;;;20.76;60.31;101093.50;4993372;28;20029;-86
2023/05/24 07:01:52;;;;;;;6.82;4.28;;;;;;;20.85;59.67;101090.09;4993176;28;20026;-85
2023/05/24 07:04:18;;;;;;;8.23;5.20;;;;;;;20.96;59.91;101097.06;5009374;28;20487;-85
2023/05/24 07:06:44;;;;;;;6.57;4.75;;;;;;;21.08;60.04;101092.56;4977381;28;20038;-84
2023/05/24 07:09:10;;;;;;;6.78;5.05;;;;;;;21.21;58.91;101093.16;5009427;28;20117;-86
2023/05/24 07:11:35;;;;;;;6.20;4.75;;;;;;;21.30;59.25;101081.03;5009754;28;20030;-85
2023/05/24 07:14:01;;;;;;;6.03;4.45;;;;;;;21.53;58.79;101068.50;4993351;28;20061;-85
2023/05/24 07:16:26;;;;;;;8.75;4.70;;;;;;;21.66;58.74;101071.72;5009508;28;20033;-85
2023/05/24 07:18:53;;;;;;;6.20;4.80;;;;;;;21.84;57.93;101070.09;5009351;28;20030;-85
2023/05/24 07:21:18;;;;;;;5.75;4.50;;;;;;;21.88;57.39;101070.63;5010564;28;20026;-86
2023/05/24 07:23:44;;;;;;;7.65;4.82;;;;;;;22.00;58.15;101075.63;5009411;28;20041;-87
2023/05/24 07:26:09;;;;;;;4.57;3.75;;;;;;;22.10;58.06;101069.56;4976926;28;20034;-86
2023/05/24 07:28:37;;;;;;;6.78;4.65;;;;;;;22.20;58.00;101071.22;4992689;28;20522;-85
2023/05/24 07:31:03;;;;;;;6.93;4.60;;;;;;;22.31;57.71;101068.44;4993489;28;20549;-85
2023/05/24 07:33:29;;;;;;;5.97;4.50;;;;;;;22.53;57.73;101083.16;5009677;28;20479;-85
2023/05/24 07:35:54;;;;;;;6.40;4.80;;;;;;;22.51;57.33;101078.97;5009132;28;20046;-85
2023/05/24 07:38:20;;;;;;;6.47;4.38;;;;;;;22.64;56.26;101078.69;4976548;28;20041;-86
2023/05/24 07:40:45;;;;;;;9.45;4.97;;;;;;;22.84;57.31;101080.34;5009574;28;20511;-85
2023/05/24 07:43:11;;;;;;;6.75;4.35;;;;;;;22.96;55.54;101088.91;4993424;28;20124;-85
2023/05/24 07:45:36;;;;;;;11.23;4.63;;;;;;;23.05;53.76;101083.59;4976966;28;20037;-85
2023/05/24 07:48:02;;;;;;;8.15;5.13;;;;;;;23.15;54.15;101089.66;5009196;28;20037;-85
2023/05/24 07:50:28;;;;;;;7.03;4.13;;;;;;;22.97;52.12;101065.00;4992845;28;20517;-85
2023/05/24 07:52:55;;;;;;;5.25;4.15;;;;;;;23.24;51.62;101095.06;4992752;28;20475;-85
2023/05/24 07:55:20;;;;;;;6.68;3.72;;;;;;;23.27;51.14;101081.53;4977113;28;20536;-85
2023/05/24 07:57:46;;;;;;;5.18;3.80;;;;;;;23.18;50.77;101073.53;4992839;28;20120;-87
2023/05/24 08:00:15;;;;;;;6.55;4.10;;;;;;;23.35;50.99;101081.66;5010202;28;20030;-85
2023/05/24 08:02:41;;;;;;;5.22;3.95;;;;;;;23.40;51.31;101076.75;5009369;28;20025;-86
2023/05/24 08:05:08;;;;;;;7.82;3.53;;;;;;;23.57;49.52;101105.00;4993143;28;20030;-86
2023/05/24 08:07:34;;;;;;;5.28;3.70;;;;;;;23.66;48.61;101093.59;5008930;28;20030;-86
2023/05/24 08:10:00;;;;;;;8.43;3.88;;;;;;;23.79;49.01;101087.09;4992910;28;20411;-86
2023/05/24 08:12:29;;;;;;;7.30;4.20;;;;;;;23.78;48.83;101090.75;4992743;28;20049;-85
2023/05/24 08:14:54;;;;;;;6.55;3.85;;;;;;;23.68;48.21;101070.50;4993516;28;20033;-86
2023/05/24 08:17:20;;;;;;;11.60;4.00;;;;;;;23.82;47.88;101089.47;4996300;28;20026;-86
2023/05/24 08:19:45;;;;;;;5.15;3.85;;;;;;;23.93;48.46;101084.78;4996125;28;20538;-87
2023/05/24 08:22:11;;;;;;;4.30;3.40;;;;;;;24.01;48.07;101065.56;4995944;28;20029;-86
2023/05/24 08:24:37;;;;;;;5.22;3.85;;;;;;;24.32;49.25;101084.50;5013481;28;20026;-86
2023/05/24 08:27:03;;;;;;;5.47;4.25;;;;;;;24.48;49.17;101078.50;5014021;28;20033;-86
2023/05/24 08:29:29;;;;;;;7.68;4.40;;;;;;;24.42;48.42;101057.97;5012533;28;20565;-87
2023/05/24 08:31:54;;;;;;;5.85;4.68;;;;;;;24.63;48.75;101066.38;5012484;28;20120;-86
2023/05/24 08:34:20;;;;;;;10.35;3.95;;;;;;;24.75;48.66;101086.31;5012355;28;20153;-85
2023/05/24 08:36:46;;;;;;;5.13;4.13;;;;;;;24.74;48.34;101073.22;4995635;28;20081;-86
2023/05/24 08:39:11;;;;;;;4.82;4.13;;;;;;;24.95;49.03;101073.69;4996176;28;20036;-86
2023/05/24 08:41:37;;;;;;;5.97;4.40;;;;;;;25.01;48.87;101075.72;4996323;28;20041;-86
2023/05/24 08:44:06;;;;;;;6.55;4.50;;;;;;;25.10;48.59;101044.84;5012294;28;20037;-85
2023/05/24 08:46:36;;;;;;;5.13;4.30;;;;;;;25.21;48.15;101055.16;5012289;28;20062;-86
2023/05/24 08:49:06;;;;;;;8.00;4.70;;;;;;;25.38;47.96;101070.09;4980003;28;20970;-86
2023/05/24 08:51:31;;;;;;;7.65;4.30;;;;;;;25.29;48.56;101041.94;4996570;28;20040;-86
2023/05/24 08:53:58;;;;;;;6.20;4.75;;;;;;;25.65;48.80;101068.19;4995483;28;20026;-85
2023/05/24 08:56:23;;;;;;;6.20;4.65;;;;;;;25.57;47.36;101070.84;5011730;28;20022;-87
2023/05/24 08:58:49;;;;;;;6.07;4.20;;;;;;;25.56;48.03;101079.75;4979416;28;20392;-87
2023/05/24 09:01:15;;;;;;;9.27;4.25;;;;;;;25.51;48.20;101076.75;4995525;28;20030;-87
2023/05/24 09:03:41;;;;;;;6.95;3.88;;;;;;;25.66;47.73;101075.13;4995935;28;20030;-85
2023/05/24 09:06:08;;;;;;;6.55;4.38;;;;;;;25.63;47.58;101075.47;4995251;28;20380;-87
2023/05/24 09:08:34;;;;;;;5.45;4.10;;;;;;;25.66;47.57;101068.03;5012049;28;20026;-86
2023/05/24 09:11:00;;;;;;;5.78;4.13;;;;;;;25.73;47.80;101073.53;4995462;28;20057;-86
2023/05/24 09:13:26;;;;;;;7.63;4.45;;;;;;;25.60;47.64;101054.59;4995362;28;20513;-86
2023/05/24 09:15:52;;;;;;;5.63;3.75;;;;;;;25.70;47.78;101073.88;4995099;28;20084;-87
2023/05/24 09:18:17;;;;;;;5.43;4.25;;;;;;;25.91;48.05;101076.88;4995259;28;20565;-86
2023/05/24 09:20:42;;;;;;;6.78;4.50;;;;;;;26.06;46.68;101076.25;5010947;28;20328;-86
2023/05/24 09:23:08;;;;;;;5.75;3.92;;;;;;;25.90;46.45;101043.41;5011625;28;20026;-86
2023/05/24 09:25:33;;;;;;;8.05;3.95;;;;;;;26.21;46.33;101075.41;4995104;28;20038;-86
2023/05/24 09:28:04;;;;;;;4.88;3.60;;;;;;;26.27;46.61;101069.44;4995029;28;20030;-87
2023/05/24 09:30:29;;;;;;;5.07;3.45;;;;;;;26.36;46.35;101067.63;4995443;28;20578;-86
2023/05/24 09:32:56;;;;;;;4.75;3.90;;;;;;;26.41;45.48;101060.00;4994885;28;20034;-86
2023/05/24 09:35:22;;;;;;;5.20;3.60;;;;;;;26.47;45.50;101062.00;4994727;28;20045;-86
2023/05/24 09:37:47;;;;;;;7.50;3.83;;;;;;;26.65;45.05;101066.28;5012621;28;20057;-86
2023/05/24 09:40:18;;;;;;;6.47;3.97;;;;;;;26.75;44.24;101064.28;5012055;28;20042;-86
2023/05/24 09:42:44;;;;;;;4.55;3.30;;;;;;;26.79;42.85;101065.56;5011296;28;20188;-86
2023/05/24 09:45:10;;;;;;;4.38;2.95;;;;;;;26.81;41.88;101058.28;4978630;28;20476;-86
2023/05/24 09:47:40;;;;;;;6.63;3.42;;;;;;;26.83;40.41;101059.75;5010663;28;20026;-86
2023/05/24 09:50:18;;;;;;;4.00;2.90;;;;;;;26.77;39.48;101049.00;5010943;28;20049;-85
2023/05/24 09:52:43;;;;;;;3.95;2.85;;;;;;;26.99;39.50;101045.59;5010618;28;20056;-87
2023/05/24 09:55:14;;;;;;;4.07;2.83;;;;;;;27.25;38.45;101061.31;5011830;28;20419;-86
2023/05/24 09:57:40;;;;;;;3.92;2.67;;;;;;;27.53;35.84;101058.16;4994531;28;20407;-86
2023/05/24 10:00:16;;;;;;;4.65;3.13;;;;;;;27.68;35.78;101053.78;4994455;28;20383;-86
2023/05/24 10:02:42;;;;;;;3.50;2.63;;;;;;;27.78;35.46;101043.75;5010445;28;20026;-86
2023/05/24 10:05:10;;;;;;;4.35;3.05;;;;;;;27.77;34.44;101051.91;5010824;28;20036;-86
2023/05/24 10:07:36;;;;;;;3.40;2.90;;;;;;;27.76;34.97;101036.94;4978524;28;20064;-86
2023/05/24 10:10:03;;;;;;;4.85;2.85;;;;;;;27.70;35.98;101026.00;4978432;28;20029;-86
2023/05/24 10:12:28;;;;;;;3.83;3.10;;;;;;;27.94;36.96;101029.50;4994449;28;20030;-86
2023/05/24 10:14:56;;;;;;;3.67;2.78;;;;;;;28.18;36.37;101039.94;5010736;28;20088;-87
2023/05/24 10:17:21;;;;;;;4.03;3.15;;;;;;;28.29;36.10;101028.06;4993919;28;20044;-86
2023/05/24 10:19:47;;;;;;;4.03;3.13;;;;;;;28.37;36.41;101037.78;4993892;28;20113;-86
2023/05/24 10:22:12;;;;;;;3.88;2.80;;;;;;;28.43;35.24;101035.25;5010192;28;20084;-86
2023/05/24 10:24:39;;;;;;;3.40;2.72;;;;;;;28.48;33.11;101034.69;4994165;28;20076;-87
2023/05/24 10:27:07;;;;;;;5.18;2.88;;;;;;;28.42;34.40;101014.16;4994365;28;20037;-87
2023/05/24 10:29:45;;;;;;;3.17;2.65;;;;;;;28.57;35.42;101028.28;4993921;28;20040;-87
2023/05/24 10:32:14;;;;;;;4.72;2.92;;;;;;;28.62;34.48;101025.06;5010946;28;20030;-86
2023/05/24 10:34:40;;;;;;;3.88;3.00;;;;;;;28.57;34.98;101012.31;5010262;28;20109;-86
2023/05/24 10:37:07;;;;;;;4.07;3.05;;;;;;;28.74;35.18;101027.09;4993803;28;20050;-87
2023/05/24 10:39:33;;;;;;;5.50;2.90;;;;;;;28.66;36.22;101005.88;4993583;28;20077;-87
2023/05/24 10:42:01;;;;;;;3.90;2.90;;;;;;;28.86;36.50;101017.63;5009930;28;20034;-86
2023/05/24 10:44:27;;;;;;;6.10;2.90;;;;;;;28.75;36.80;101020.75;4993982;28;20049;-86
2023/05/24 10:47:11;;;;;;;5.22;3.15;;;;;;;28.77;37.41;101018.72;5010953;28;20052;-84
2023/05/24 10:49:38;;;;;;;6.32;2.95;;;;;;;28.72;37.20;101021.13;5011516;28;20022;-84
2023/05/24 10:52:10;;;;;;;4.13;2.97;;;;;;;28.77;37.90;101015.25;4993813;28;20552;-84
2023/05/24 10:54:38;;;;;;;5.15;3.05;;;;;;;28.74;37.51;101016.44;4993468;28;20113;-84
2023/05/24 10:57:04;;;;;;;6.60;3.25;;;;;;;28.83;37.90;101002.03;4994065;28;20033;-84
2023/05/24 10:59:37;;;;;;;3.70;2.80;;;;;;;28.92;37.52;101001.97;4977115;28;20033;-85
2023/05/24 11:02:15;;;;;;;4.03;3.05;;;;;;;28.91;36.94;100986.97;4993839;28;20033;-84
2023/05/24 11:04:45;;;;;;;4.20;2.85;;;;;;;28.98;36.55;101009.19;4995168;28;20036;-84
2023/05/24 11:07:12;;;;;;;3.67;2.85;;;;;;;28.92;36.50;100996.63;5009967;28;20029;-84
2023/05/24 11:09:58;;;;;;;5.75;3.30;;;;;;;29.09;36.92;101000.72;4977336;28;20399;-85
2023/05/24 11:12:24;;;;;;;4.70;2.67;;;;;;;29.24;36.11;101001.53;4996133;28;20037;-83
2023/05/24 11:14:50;;;;;;;3.65;2.72;;;;;;;29.18;36.23;100972.13;4993257;28;20466;-88
2023/05/24 11:17:20;;;;;;;4.65;2.70;;;;;;;29.43;35.32;100989.41;5009857;28;20065;-85
2023/05/24 11:19:50;;;;;;;4.85;2.78;;;;;;;29.55;35.15;100997.78;4993900;28;20025;-85
2023/05/24 11:22:16;;;;;;;3.67;2.83;;;;;;;29.46;34.53;100990.88;4993713;28;20491;-84